Terminal Aerodrome Forecast
Issued by NWS

Home | Current Version | Previous Version | Text Only | Print | Product List | Glossary On
Versions: 1 2 3 4 5 6 7 8 9 10 11 12 13 14 15 16 17 18 19 20
000
FTUS41 KBGM 020800 AAA
TAFELM
TAF AMD
KELM 020840Z 0209/0306 VRB03KT P6SM BKN080
     FM021400 21012G22KT P6SM FEW045
     FM022200 22010G20KT P6SM -SHRA SCT025 OVC045
     FM030300 23005KT 3SM -SHRA BR SCT015 OVC025=

USA.gov is the U.S. government's official web portal to all federal, state and local government web resources and services.